Time;durP1;ratioP1;P1;durP2;ratioP2;P2;SDS_P1;SDS_P2;PMS_P1;PMS_P2;Temp;Humidity;BMP_temperature;BMP_pressure;BME280_temperature;BME280_humidity;BME280_pressure;Samples;Min_cycle;Max_cycle;Signal;HPM_P1;HPM_P2
2024/01/30 00:02:15;;;;;;;6.97;2.97;;;-0.90;65.70;;;;;;5069937;28;20385;-75
2024/01/30 00:04:40;;;;;;;;;;;-1.00;66.00;;;;;;5071246;28;20025;-75
2024/01/30 00:07:07;;;;;;;3.22;2.13;;;-0.90;66.00;;;;;;5071714;28;19978;-75
2024/01/30 00:09:33;;;;;;;1.98;1.02;;;-1.00;65.90;;;;;;5071762;28;20481;-75
2024/01/30 00:11:59;;;;;;;;;;;-1.00;66.00;;;;;;5070167;28;20042;-75
2024/01/30 00:14:25;;;;;;;5.88;2.75;;;-1.00;66.00;;;;;;5071997;28;20003;-75
2024/01/30 00:16:51;;;;;;;5.22;2.83;;;-1.10;66.00;;;;;;5071568;28;20459;-72
2024/01/30 00:19:17;;;;;;;;;;;-1.10;66.10;;;;;;5072308;28;20025;-73
2024/01/30 00:21:43;;;;;;;2.33;1.23;;;-1.10;66.40;;;;;;5071164;28;20440;-75
2024/01/30 00:24:10;;;;;;;3.72;2.22;;;-1.10;66.40;;;;;;5071489;28;20045;-75
2024/01/30 00:26:36;;;;;;;;;;;-1.20;65.50;;;;;;5071006;28;20439;-75
2024/01/30 00:29:03;;;;;;;4.45;1.70;;;-1.10;66.80;;;;;;5087803;28;19928;-75
2024/01/30 00:31:29;;;;;;;5.40;2.03;;;-1.10;66.40;;;;;;5071274;28;20048;-75
2024/01/30 00:33:55;;;;;;;8.90;6.32;;;-1.10;66.70;;;;;;5072427;28;20055;-75
2024/01/30 00:36:22;;;;;;;23.40;5.78;;;-1.20;66.20;;;;;;5071033;28;20040;-75
2024/01/30 00:38:47;;;;;;;;;;;-1.30;66.50;;;;;;5054839;28;20029;-75
2024/01/30 00:41:14;;;;;;;2.85;2.00;;;-1.30;66.70;;;;;;5087014;28;19920;-75
2024/01/30 00:43:40;;;;;;;9.50;3.38;;;-1.30;66.70;;;;;;5071069;28;20028;-75
2024/01/30 00:46:06;;;;;;;6.55;3.83;;;-1.30;66.50;;;;;;5072312;28;20063;-76
2024/01/30 00:48:32;;;;;;;4.93;2.53;;;-1.30;66.30;;;;;;5070750;28;20094;-72
2024/01/30 00:50:58;;;;;;;7.70;4.53;;;-1.30;66.30;;;;;;5069912;28;20040;-73
2024/01/30 00:53:24;;;;;;;3.30;2.35;;;-1.30;66.50;;;;;;5071111;28;20033;-72
2024/01/30 00:55:50;;;;;;;4.70;2.83;;;-1.30;66.40;;;;;;5070720;28;20091;-73
2024/01/30 00:58:19;;;;;;;9.15;2.88;;;-1.30;66.50;;;;;;5071901;28;20409;-72
2024/01/30 01:00:45;;;;;;;5.05;2.90;;;-1.40;66.30;;;;;;5071217;28;20435;-73
2024/01/30 01:03:11;;;;;;;;;;;-1.40;66.40;;;;;;5071193;28;20048;-73
2024/01/30 01:05:37;;;;;;;2.92;1.85;;;-1.40;66.60;;;;;;5072077;28;19916;-73
2024/01/30 01:08:03;;;;;;;7.15;2.83;;;-1.50;66.50;;;;;;5053793;28;20036;-73
2024/01/30 01:10:29;;;;;;;9.82;3.15;;;-1.60;65.90;;;;;;5071245;28;20553;-73
2024/01/30 01:12:55;;;;;;;4.38;2.22;;;-1.50;66.60;;;;;;5070547;28;20067;-73
2024/01/30 01:15:21;;;;;;;4.90;2.70;;;-1.50;66.30;;;;;;5070475;28;20378;-73
2024/01/30 01:17:47;;;;;;;3.90;1.95;;;-1.60;66.30;;;;;;5070655;28;20412;-73
2024/01/30 01:20:14;;;;;;;10.32;2.70;;;-1.60;67.20;;;;;;5071126;28;20421;-73
2024/01/30 01:22:40;;;;;;;4.35;2.63;;;-1.70;66.70;;;;;;5070260;28;20073;-73
2024/01/30 01:25:08;;;;;;;7.13;2.35;;;-1.70;66.70;;;;;;5069822;28;20064;-73
2024/01/30 01:27:34;;;;;;;6.30;3.40;;;-1.70;66.70;;;;;;5069719;28;20040;-73
2024/01/30 01:30:01;;;;;;;5.05;2.15;;;-1.70;66.70;;;;;;5069741;28;20470;-73
2024/01/30 01:32:27;;;;;;;8.95;3.30;;;-1.70;65.40;;;;;;5069277;28;20055;-73
2024/01/30 01:34:53;;;;;;;4.13;1.75;;;-1.80;65.90;;;;;;5071258;28;20028;-72
2024/01/30 01:37:22;;;;;;;3.92;2.67;;;-1.80;66.00;;;;;;5069518;28;20514;-72
2024/01/30 01:39:48;;;;;;;3.92;2.40;;;-1.80;65.90;;;;;;5070787;28;20032;-73
2024/01/30 01:42:14;;;;;;;3.00;1.73;;;-1.90;66.40;;;;;;5070193;28;20454;-73
2024/01/30 01:44:40;;;;;;;1.92;1.55;;;-1.80;66.10;;;;;;5072172;28;20028;-73
2024/01/30 01:47:06;;;;;;;9.70;2.72;;;-1.90;66.30;;;;;;5073482;28;20036;-73
2024/01/30 01:49:32;;;;;;;;;;;-1.90;66.10;;;;;;5075532;28;20202;-73
2024/01/30 01:51:59;;;;;;;1.80;1.00;;;-1.90;65.40;;;;;;5072501;28;19920;-73
2024/01/30 01:54:27;;;;;;;13.55;4.35;;;-2.00;65.70;;;;;;5057074;28;20024;-73
2024/01/30 01:56:53;;;;;;;4.20;2.92;;;-2.00;65.70;;;;;;5073786;28;20127;-73
2024/01/30 01:59:21;;;;;;;2.55;1.77;;;-2.00;65.80;;;;;;5090628;28;20039;-73
2024/01/30 02:04:33;;;;;;;3.25;1.15;;;-2.00;65.20;;;;;;5074059;28;20072;-75
2024/01/30 02:06:59;;;;;;;6.53;3.90;;;-2.00;65.70;;;;;;5074715;28;20036;-75
2024/01/30 02:09:25;;;;;;;;;;;-2.00;65.10;;;;;;5075392;28;20029;-75
2024/01/30 02:11:51;;;;;;;2.95;1.95;;;-2.00;65.70;;;;;;5073974;28;19965;-75
2024/01/30 02:14:17;;;;;;;4.38;2.40;;;-2.00;65.90;;;;;;5073766;28;20500;-75
2024/01/30 02:16:43;;;;;;;1.50;1.15;;;-2.10;65.80;;;;;;5073326;28;20477;-75
2024/01/30 02:19:09;;;;;;;4.25;2.05;;;-2.10;65.90;;;;;;5074668;28;20044;-75
2024/01/30 02:21:35;;;;;;;1.95;1.15;;;-2.10;66.20;;;;;;5072770;28;20098;-75
2024/01/30 02:24:03;;;;;;;3.97;1.92;;;-2.20;66.40;;;;;;5073387;28;20045;-75
2024/01/30 02:26:29;;;;;;;3.40;1.75;;;-2.20;66.50;;;;;;5073600;28;20063;-75
2024/01/30 02:28:55;;;;;;;6.40;2.72;;;-2.20;66.60;;;;;;5073201;28;20021;-75
2024/01/30 02:31:21;;;;;;;4.78;2.70;;;-2.10;66.60;;;;;;5072618;28;20048;-75
2024/01/30 02:33:47;;;;;;;4.63;2.25;;;-2.10;66.40;;;;;;5073516;28;20029;-73
2024/01/30 02:36:15;;;;;;;4.80;3.38;;;-2.10;66.50;;;;;;5074597;28;20056;-73
2024/01/30 02:38:41;;;;;;;4.07;2.47;;;-2.10;66.50;;;;;;5074440;28;20500;-73
2024/01/30 02:41:07;;;;;;;10.07;2.85;;;-2.10;66.50;;;;;;5072287;28;20044;-73
2024/01/30 02:43:33;;;;;;;3.38;1.98;;;-2.10;66.50;;;;;;5056532;28;20536;-72
2024/01/30 02:46:00;;;;;;;3.90;2.28;;;-2.10;66.90;;;;;;5074535;28;20048;-73
2024/01/30 02:48:26;;;;;;;2.63;1.05;;;-2.10;67.10;;;;;;5072946;28;20083;-73
2024/01/30 02:50:52;;;;;;;4.97;1.98;;;-2.10;66.60;;;;;;5055512;28;20037;-73
2024/01/30 02:53:18;;;;;;;4.80;1.85;;;-2.20;66.10;;;;;;5074290;28;20412;-73
2024/01/30 02:55:45;;;;;;;6.30;2.60;;;-2.20;66.20;;;;;;5073533;28;20046;-72
2024/01/30 02:58:11;;;;;;;7.30;2.05;;;-2.30;66.30;;;;;;5089350;28;20031;-73
2024/01/30 03:00:37;;;;;;;3.60;1.80;;;-2.30;66.20;;;;;;5072567;28;20064;-73
2024/01/30 03:03:03;;;;;;;2.30;1.95;;;-2.30;66.20;;;;;;5072143;28;20082;-73
2024/01/30 03:05:29;;;;;;;4.63;1.77;;;-2.30;66.40;;;;;;5073047;28;20041;-72
2024/01/30 03:07:55;;;;;;;;;;;-2.30;66.30;;;;;;5074086;28;20352;-72
2024/01/30 03:10:21;;;;;;;3.63;2.63;;;-2.40;65.90;;;;;;5071065;28;19916;-73
2024/01/30 03:12:47;;;;;;;4.25;3.15;;;-2.50;65.70;;;;;;5088884;28;20522;-73
2024/01/30 03:15:13;;;;;;;5.45;3.13;;;-2.50;65.70;;;;;;5073072;28;20066;-73
2024/01/30 03:17:40;;;;;;;9.10;2.08;;;-2.60;66.30;;;;;;5071642;28;20028;-73
2024/01/30 03:20:07;;;;;;;1.58;1.20;;;-2.60;65.80;;;;;;5072174;28;20136;-73
2024/01/30 03:22:33;;;;;;;3.00;1.20;;;-2.60;65.70;;;;;;5073584;28;20032;-73
2024/01/30 03:24:59;;;;;;;3.20;2.13;;;-2.60;66.00;;;;;;5073862;28;20064;-72
2024/01/30 03:27:25;;;;;;;2.25;1.15;;;-2.60;65.90;;;;;;5072358;28;20484;-72
2024/01/30 03:29:51;;;;;;;8.95;2.70;;;-2.60;65.80;;;;;;5072294;28;20067;-73
2024/01/30 03:32:17;;;;;;;8.95;3.67;;;-2.60;66.10;;;;;;5072705;28;20040;-73
2024/01/30 03:34:43;;;;;;;5.90;3.08;;;-2.60;66.50;;;;;;5071830;28;20035;-73
2024/01/30 03:37:09;;;;;;;3.42;2.30;;;-2.70;66.60;;;;;;5071446;28;20056;-72
2024/01/30 03:39:36;;;;;;;3.13;2.03;;;-2.60;66.60;;;;;;5071285;28;20025;-73
2024/01/30 03:42:02;;;;;;;4.30;1.30;;;-2.70;66.40;;;;;;5071732;28;20473;-73
2024/01/30 03:44:28;;;;;;;5.70;2.60;;;-2.70;65.70;;;;;;5072563;28;20025;-73
2024/01/30 03:46:54;;;;;;;3.75;2.00;;;-2.70;66.20;;;;;;5072076;28;20070;-72
2024/01/30 03:49:20;;;;;;;5.47;1.70;;;-2.70;66.20;;;;;;5071161;28;20447;-72
2024/01/30 03:51:47;;;;;;;3.55;2.00;;;-2.70;66.30;;;;;;5070612;28;20037;-75
2024/01/30 03:54:13;;;;;;;1.90;1.65;;;-2.70;66.60;;;;;;5072587;28;20033;-75
2024/01/30 03:56:40;;;;;;;3.17;1.27;;;-2.80;66.50;;;;;;5071036;28;20543;-73
2024/01/30 03:59:06;;;;;;;2.67;1.45;;;-2.80;66.70;;;;;;5071366;28;20036;-73
2024/01/30 04:01:32;;;;;;;7.63;3.63;;;-2.80;66.70;;;;;;5070886;28;20041;-73
2024/01/30 04:03:58;;;;;;;2.42;1.23;;;-2.80;66.40;;;;;;5072772;28;20535;-73
2024/01/30 04:06:24;;;;;;;2.75;1.08;;;-2.90;66.50;;;;;;5071934;28;20539;-73
2024/01/30 04:08:50;;;;;;;1.08;0.65;;;-2.90;66.70;;;;;;5070886;28;20608;-73
2024/01/30 04:11:22;;;;;;;1.48;0.95;;;-2.90;66.70;;;;;;5069806;28;20071;-74
2024/01/30 04:13:48;;;;;;;3.40;1.35;;;-3.00;66.30;;;;;;5071042;28;20525;-73
2024/01/30 04:16:33;;;;;;;1.17;0.73;;;-3.00;66.70;;;;;;5072637;28;20036;-73
2024/01/30 04:18:59;;;;;;;2.78;1.73;;;-3.00;66.60;;;;;;5070353;28;20093;-75
2024/01/30 04:21:25;;;;;;;5.22;2.90;;;-3.10;66.30;;;;;;5069696;28;20090;-75
2024/01/30 04:23:52;;;;;;;2.05;1.20;;;-3.00;66.50;;;;;;5071483;28;20503;-73
2024/01/30 04:26:18;;;;;;;4.38;2.30;;;-3.10;65.80;;;;;;5071929;28;20382;-73
2024/01/30 04:28:45;;;;;;;;;;;-3.00;66.30;;;;;;5070752;28;20094;-73
2024/01/30 04:31:11;;;;;;;3.08;2.10;;;-3.10;66.40;;;;;;5069348;28;19920;-74
2024/01/30 04:33:37;;;;;;;3.58;1.65;;;-3.10;65.80;;;;;;5087315;28;20493;-73
2024/01/30 04:36:04;;;;;;;8.93;3.30;;;-3.10;66.40;;;;;;5087023;28;20051;-73
2024/01/30 04:38:31;;;;;;;3.95;2.55;;;-3.10;66.40;;;;;;5070271;28;20505;-73
2024/01/30 04:40:57;;;;;;;11.50;3.85;;;-3.10;66.20;;;;;;5069234;28;20447;-73
2024/01/30 04:43:23;;;;;;;3.03;2.58;;;-3.10;66.30;;;;;;5070371;28;20032;-73
2024/01/30 04:45:50;;;;;;;4.78;1.58;;;-3.10;66.40;;;;;;5070037;28;20394;-73
2024/01/30 04:48:16;;;;;;;4.88;2.03;;;-3.10;65.80;;;;;;5069824;28;20119;-73
2024/01/30 04:50:42;;;;;;;6.65;1.95;;;-3.10;66.30;;;;;;5070743;28;20318;-73
2024/01/30 04:53:08;;;;;;;4.25;1.20;;;-3.10;66.20;;;;;;5071480;28;20032;-73
2024/01/30 04:55:36;;;;;;;2.13;1.88;;;-3.20;66.20;;;;;;5069850;28;20115;-73
2024/01/30 04:58:02;;;;;;;2.00;1.35;;;-3.20;66.60;;;;;;5069866;28;20056;-73
2024/01/30 05:00:28;;;;;;;4.38;1.30;;;-3.30;66.20;;;;;;5069126;28;20094;-73
2024/01/30 05:03:13;;;;;;;1.67;1.15;;;-3.20;66.60;;;;;;5070027;28;20024;-73
2024/01/30 05:05:39;;;;;;;4.70;1.88;;;-3.20;66.70;;;;;;5071468;28;20040;-73
2024/01/30 05:08:05;;;;;;;3.33;2.15;;;-3.20;66.70;;;;;;5071122;28;20040;-72
2024/01/30 05:10:32;;;;;;;8.15;2.85;;;-3.30;65.90;;;;;;5069061;28;20394;-73
2024/01/30 05:12:58;;;;;;;7.25;3.40;;;-3.20;66.40;;;;;;5070340;28;20024;-73
2024/01/30 05:15:24;;;;;;;6.65;1.85;;;-3.30;66.40;;;;;;5071820;28;20523;-73
2024/01/30 05:17:50;;;;;;;7.22;3.85;;;-3.30;66.70;;;;;;5054313;28;20128;-73
2024/01/30 05:20:17;;;;;;;5.82;3.47;;;-3.30;67.80;;;;;;5059117;28;20042;-73
2024/01/30 05:22:44;;;;;;;11.23;6.47;;;-3.20;66.70;;;;;;5076917;28;20029;-73
2024/01/30 05:25:12;;;;;;;44.08;7.28;;;-3.30;67.50;;;;;;5076850;28;20135;-73
2024/01/30 05:27:39;;;;;;;11.30;5.68;;;-3.30;67.80;;;;;;5077810;28;20100;-73
2024/01/30 05:30:07;;;;;;;7.90;5.30;;;-3.30;67.80;;;;;;5075546;28;20032;-73
2024/01/30 05:32:33;;;;;;;12.35;6.32;;;-3.30;67.80;;;;;;5076293;28;20504;-73
2024/01/30 05:34:59;;;;;;;;;;;-3.30;67.80;;;;;;5078217;28;20104;-73
2024/01/30 05:37:25;;;;;;;8.60;5.25;;;-3.30;68.30;;;;;;5093064;28;19912;-75
2024/01/30 05:39:51;;;;;;;10.50;3.53;;;-3.30;68.50;;;;;;5077405;28;20045;-75
2024/01/30 05:42:17;;;;;;;14.25;5.72;;;-3.30;68.30;;;;;;5076827;28;20437;-73
2024/01/30 05:44:43;;;;;;;17.23;6.63;;;-3.30;68.30;;;;;;5093198;28;20025;-75
2024/01/30 05:47:10;;;;;;;6.43;4.30;;;-3.40;68.00;;;;;;5076856;28;20041;-75
2024/01/30 05:49:36;;;;;;;8.60;4.05;;;-3.40;67.90;;;;;;5076133;28;20021;-73
2024/01/30 05:52:04;;;;;;;19.33;5.25;;;-3.40;67.80;;;;;;5076437;28;20036;-73
2024/01/30 05:54:30;;;;;;;7.40;4.15;;;-3.40;67.30;;;;;;5059317;28;20039;-73
2024/01/30 05:56:56;;;;;;;12.88;8.57;;;-3.30;68.00;;;;;;5075948;28;20040;-73
2024/01/30 05:59:22;;;;;;;8.52;5.32;;;-3.30;68.10;;;;;;5077663;28;20055;-73
2024/01/30 06:01:48;;;;;;;11.05;3.78;;;-3.30;68.10;;;;;;5075275;28;20455;-73
2024/01/30 06:04:14;;;;;;;11.95;5.95;;;-3.40;67.70;;;;;;5075801;28;20029;-73
2024/01/30 06:06:41;;;;;;;;;;;-3.30;67.80;;;;;;5076622;28;20036;-74
2024/01/30 06:11:52;;;;;;;8.10;5.13;;;-3.40;67.70;;;;;;5075190;28;20101;-75
2024/01/30 06:14:18;;;;;;;14.18;5.50;;;-3.50;67.80;;;;;;5082673;28;20028;-73
2024/01/30 06:16:44;;;;;;;11.15;6.68;;;-3.50;68.00;;;;;;5077198;28;20363;-73
2024/01/30 06:19:10;;;;;;;11.55;5.00;;;-3.50;68.10;;;;;;5075797;28;20036;-73
2024/01/30 06:21:36;;;;;;;19.88;6.20;;;-3.50;67.90;;;;;;5074523;28;20098;-73
2024/01/30 06:24:02;;;;;;;;;;;-3.50;67.90;;;;;;5076276;28;20079;-73
2024/01/30 06:26:28;;;;;;;8.98;4.00;;;-3.60;67.70;;;;;;5077246;28;19939;-74
2024/01/30 06:28:55;;;;;;;12.85;4.68;;;-3.60;67.70;;;;;;5076899;28;20040;-75
2024/01/30 06:31:21;;;;;;;6.88;3.92;;;-3.60;67.60;;;;;;5078810;28;20044;-75
2024/01/30 06:33:47;;;;;;;;;;;-3.60;67.60;;;;;;5094806;28;20028;-73
2024/01/30 06:36:14;;;;;;;5.67;4.47;;;-3.60;67.60;;;;;;5092639;28;19924;-73
2024/01/30 06:38:40;;;;;;;;;;;-3.60;67.60;;;;;;5093325;28;20021;-73
2024/01/30 06:41:06;;;;;;;10.97;5.27;;;-3.60;67.40;;;;;;5074656;28;19927;-73
2024/01/30 06:43:33;;;;;;;6.15;3.60;;;-3.60;67.30;;;;;;5092909;28;20031;-75
2024/01/30 06:45:59;;;;;;;7.50;3.22;;;-3.60;67.10;;;;;;5092389;28;20107;-73
2024/01/30 06:48:25;;;;;;;3.85;3.45;;;-3.60;66.80;;;;;;5092169;28;20082;-73
2024/01/30 06:50:54;;;;;;;3.22;1.88;;;-3.60;66.30;;;;;;5074376;28;20118;-73
2024/01/30 06:53:20;;;;;;;7.22;3.70;;;-3.60;66.20;;;;;;5093612;28;20568;-73
2024/01/30 06:55:47;;;;;;;6.45;3.70;;;-3.70;66.50;;;;;;5092219;28;20036;-73
2024/01/30 06:58:13;;;;;;;7.60;4.18;;;-3.70;66.40;;;;;;5092314;28;20378;-73
2024/01/30 07:00:39;;;;;;;5.93;3.40;;;-3.70;66.30;;;;;;5091485;28;20104;-73
2024/01/30 07:03:06;;;;;;;3.42;2.63;;;-3.70;66.30;;;;;;5075898;28;20032;-73
2024/01/30 07:05:32;;;;;;;3.42;2.63;;;-3.60;66.40;;;;;;5091436;28;20040;-73
2024/01/30 07:07:58;;;;;;;3.67;2.78;;;-3.60;67.20;;;;;;5071137;28;20082;-73
2024/01/30 07:10:25;;;;;;;5.38;2.35;;;-3.60;66.60;;;;;;5072642;28;20036;-73
2024/01/30 07:12:51;;;;;;;5.75;3.00;;;-3.50;66.60;;;;;;5072747;28;20033;-72
2024/01/30 07:15:19;;;;;;;5.72;3.40;;;-3.50;66.50;;;;;;5071758;28;20032;-73
2024/01/30 07:17:46;;;;;;;4.90;2.80;;;-3.50;66.60;;;;;;5071425;28;20039;-73
2024/01/30 07:20:12;;;;;;;4.18;3.67;;;-3.40;66.70;;;;;;5072321;28;20102;-73
2024/01/30 07:22:38;;;;;;;;;;;-3.40;66.90;;;;;;5083484;28;20032;-73
2024/01/30 07:25:04;;;;;;;16.88;7.72;;;-3.30;66.70;;;;;;5081226;28;19920;-73
2024/01/30 07:27:30;;;;;;;7.82;5.18;;;-3.30;66.70;;;;;;5072834;28;20078;-73
2024/01/30 07:29:56;;;;;;;8.48;5.05;;;-3.20;67.20;;;;;;5071389;28;20090;-73
2024/01/30 07:32:23;;;;;;;19.33;11.88;;;-3.20;67.40;;;;;;5070720;28;20040;-73
2024/01/30 07:34:50;;;;;;;11.38;5.35;;;-3.20;67.30;;;;;;5071560;28;20443;-73
2024/01/30 07:37:16;;;;;;;8.05;5.38;;;-3.10;67.10;;;;;;5071261;28;20469;-73
2024/01/30 07:39:42;;;;;;;9.55;6.00;;;-3.00;67.20;;;;;;5082246;28;20035;-73
2024/01/30 07:42:08;;;;;;;11.65;8.20;;;-2.90;66.90;;;;;;5089272;28;20382;-73
2024/01/30 07:44:35;;;;;;;;;;;-2.90;66.90;;;;;;5092073;28;20119;-73
2024/01/30 07:47:01;;;;;;;28.13;12.40;;;-2.80;67.00;;;;;;5091009;28;19961;-72
2024/01/30 07:49:27;;;;;;;17.08;11.07;;;-2.70;66.90;;;;;;5088158;28;20074;-73
2024/01/30 07:51:53;;;;;;;;;;;-2.70;66.90;;;;;;5079676;28;20588;-73
2024/01/30 07:54:19;;;;;;;14.50;7.72;;;-2.60;66.70;;;;;;5082102;28;19912;-73
2024/01/30 07:56:45;;;;;;;11.02;9.68;;;-2.60;66.60;;;;;;5065784;28;20032;-73
2024/01/30 07:59:12;;;;;;;28.23;17.77;;;-2.50;66.60;;;;;;5092160;28;20060;-73
2024/01/30 08:01:38;;;;;;;24.52;13.82;;;-2.40;66.40;;;;;;5090025;28;20036;-73
2024/01/30 08:04:04;;;;;;;20.85;14.57;;;-2.30;66.20;;;;;;5092256;28;20028;-73
2024/01/30 08:06:30;;;;;;;;;;;-2.20;66.40;;;;;;5091787;28;20388;-73
2024/01/30 08:08:57;;;;;;;20.75;9.55;;;-2.10;66.40;;;;;;5091131;28;20007;-73
2024/01/30 08:11:26;;;;;;;16.00;9.55;;;-2.00;66.40;;;;;;5090150;28;20075;-73
2024/01/30 08:13:52;;;;;;;22.25;9.55;;;-1.90;66.40;;;;;;5090704;28;20070;-73
2024/01/30 08:16:19;;;;;;;14.55;10.57;;;-1.80;66.40;;;;;;5092258;28;20116;-73
2024/01/30 08:18:45;;;;;;;;;;;-1.70;66.80;;;;;;5092412;28;20034;-73
2024/01/30 08:21:11;;;;;;;15.80;8.25;;;-1.60;66.70;;;;;;5089890;28;19919;-73
2024/01/30 08:23:39;;;;;;;11.75;7.22;;;-1.50;66.60;;;;;;5073571;28;20044;-73
2024/01/30 08:26:05;;;;;;;10.88;6.65;;;-1.40;66.40;;;;;;5091965;28;20040;-73
2024/01/30 08:28:32;;;;;;;20.02;8.35;;;-1.30;66.50;;;;;;5090610;28;20032;-73
2024/01/30 08:30:58;;;;;;;10.77;6.65;;;-1.20;66.40;;;;;;5090591;28;20040;-73
2024/01/30 08:33:24;;;;;;;8.20;4.28;;;-1.10;66.40;;;;;;5073927;28;20078;-73
2024/01/30 08:35:50;;;;;;;9.00;5.93;;;-0.90;66.70;;;;;;5091656;28;20048;-73
2024/01/30 08:38:16;;;;;;;8.50;4.80;;;-0.80;66.30;;;;;;5090468;28;20055;-72
2024/01/30 08:40:42;;;;;;;9.75;5.47;;;-0.70;66.30;;;;;;5089503;28;20036;-73
2024/01/30 08:43:10;;;;;;;15.13;8.15;;;-0.60;66.80;;;;;;5091848;28;20435;-72
2024/01/30 08:45:36;;;;;;;6.60;4.68;;;-0.40;66.70;;;;;;5091681;28;20040;-73
2024/01/30 08:48:02;;;;;;;7.15;5.20;;;-0.20;66.40;;;;;;5089963;28;20039;-73
2024/01/30 08:50:28;;;;;;;8.13;5.93;;;-0.10;66.10;;;;;;5089585;28;20594;-73
2024/01/30 08:52:54;;;;;;;15.07;4.95;;;0.10;66.20;;;;;;5089852;28;20263;-73
2024/01/30 08:55:20;;;;;;;7.85;5.03;;;0.20;66.60;;;;;;5090054;28;20044;-73
2024/01/30 08:57:46;;;;;;;10.65;6.30;;;0.80;66.60;;;;;;5090239;28;20485;-73
2024/01/30 09:00:13;;;;;;;6.95;5.55;;;1.90;64.10;;;;;;5088938;28;20101;-73
2024/01/30 09:02:39;;;;;;;7.85;6.85;;;3.00;61.60;;;;;;5090068;28;20035;-73
2024/01/30 09:05:05;;;;;;;6.20;4.05;;;4.00;58.80;;;;;;5090899;28;20044;-73
2024/01/30 09:07:31;;;;;;;11.43;6.45;;;5.10;57.40;;;;;;5090217;28;20028;-72
2024/01/30 09:09:57;;;;;;;10.95;6.40;;;6.10;53.80;;;;;;5091365;28;20476;-73
2024/01/30 09:12:23;;;;;;;6.65;3.50;;;6.60;52.60;;;;;;5090483;28;20044;-73
2024/01/30 09:14:50;;;;;;;8.63;5.85;;;7.70;50.20;;;;;;5089777;28;20024;-73
2024/01/30 09:17:16;;;;;;;12.65;7.93;;;7.80;49.10;;;;;;5072740;28;20089;-73
2024/01/30 09:19:42;;;;;;;9.63;6.53;;;8.20;47.30;;;;;;5091290;28;20489;-73
2024/01/30 09:22:08;;;;;;;9.68;4.30;;;7.80;48.20;;;;;;5089364;28;20425;-73
2024/01/30 09:24:34;;;;;;;9.52;5.28;;;7.40;49.10;;;;;;5091050;28;20051;-73
2024/01/30 09:27:00;;;;;;;;;;;7.90;47.90;;;;;;5090229;28;20032;-73
2024/01/30 09:29:26;;;;;;;12.18;6.90;;;8.40;47.10;;;;;;5090931;28;19919;-73
2024/01/30 09:31:52;;;;;;;12.20;5.95;;;8.40;46.90;;;;;;5072004;28;20040;-73
2024/01/30 09:34:18;;;;;;;6.68;3.90;;;8.50;45.30;;;;;;5091161;28;20397;-73
2024/01/30 09:36:44;;;;;;;5.22;3.35;;;8.70;45.30;;;;;;5080704;28;20074;-73
2024/01/30 09:39:10;;;;;;;4.95;4.22;;;8.80;46.00;;;;;;5084290;28;20043;-73
2024/01/30 09:41:54;;;;;;;5.32;2.40;;;9.40;44.20;;;;;;5089007;28;20612;-73
2024/01/30 09:44:21;;;;;;;4.75;2.53;;;10.30;42.40;;;;;;5089980;28;20028;-73
2024/01/30 09:46:48;;;;;;;7.78;5.18;;;10.60;42.10;;;;;;5072662;28;20024;-72
2024/01/30 09:49:14;;;;;;;7.00;2.08;;;10.40;41.30;;;;;;5089519;28;20489;-73
2024/01/30 09:51:40;;;;;;;6.32;4.03;;;9.70;42.10;;;;;;5072077;28;20040;-72
2024/01/30 09:54:10;;;;;;;7.00;4.03;;;9.20;41.50;;;;;;5089839;28;20024;-72
2024/01/30 09:56:36;;;;;;;2.75;2.03;;;8.90;43.50;;;;;;5089250;28;20040;-72
2024/01/30 09:59:02;;;;;;;7.57;3.58;;;9.00;44.10;;;;;;5090681;28;20416;-72
2024/01/30 10:01:28;;;;;;;6.90;4.03;;;9.00;43.10;;;;;;5090303;28;20040;-73
2024/01/30 10:03:55;;;;;;;5.43;3.22;;;9.10;43.90;;;;;;5089615;28;20084;-72
2024/01/30 10:06:24;;;;;;;7.20;4.65;;;8.70;44.10;;;;;;5092533;28;20036;-72
2024/01/30 10:08:50;;;;;;;4.88;2.42;;;8.30;45.30;;;;;;5093200;28;20455;-72
2024/01/30 10:11:16;;;;;;;5.03;3.25;;;8.10;45.60;;;;;;5093888;28;20048;-72
2024/01/30 10:13:42;;;;;;;6.63;4.53;;;8.30;45.90;;;;;;5093027;28;20032;-72
2024/01/30 10:16:08;;;;;;;4.70;2.30;;;8.70;44.80;;;;;;5093088;28;20071;-72
2024/01/30 10:18:34;;;;;;;5.75;2.95;;;9.00;44.30;;;;;;5093089;28;20039;-72
2024/01/30 10:21:01;;;;;;;10.13;4.57;;;9.10;44.10;;;;;;5093476;28;20040;-72
2024/01/30 10:23:27;;;;;;;7.32;3.45;;;9.50;42.70;;;;;;5093034;28;20059;-72
2024/01/30 10:25:53;;;;;;;4.10;2.85;;;9.90;42.50;;;;;;5094315;28;20032;-73
2024/01/30 10:28:20;;;;;;;2.65;1.90;;;9.90;41.80;;;;;;5094118;28;20047;-72
2024/01/30 10:30:46;;;;;;;3.58;2.88;;;10.30;41.10;;;;;;5091711;28;20127;-72
2024/01/30 10:33:12;;;;;;;4.38;2.38;;;11.50;38.60;;;;;;5075986;28;20111;-72
2024/01/30 10:35:38;;;;;;;;;;;11.20;39.20;;;;;;5092960;28;20083;-73
2024/01/30 10:38:07;;;;;;;5.10;3.58;;;10.90;40.30;;;;;;5075673;28;19912;-72
2024/01/30 10:40:36;;;;;;;5.18;2.83;;;11.10;39.90;;;;;;5091786;28;20539;-72
2024/01/30 10:43:03;;;;;;;2.67;2.47;;;11.60;38.70;;;;;;5092675;28;20054;-73
2024/01/30 10:45:31;;;;;;;2.35;1.63;;;11.40;38.90;;;;;;5092421;28;20036;-72
2024/01/30 10:48:00;;;;;;;2.67;1.70;;;11.50;38.70;;;;;;5093555;28;20024;-73
2024/01/30 10:50:27;;;;;;;4.50;3.67;;;12.00;38.20;;;;;;5093139;28;20032;-72
2024/01/30 10:52:56;;;;;;;2.55;2.35;;;12.60;36.60;;;;;;5092382;28;20032;-73
2024/01/30 10:55:23;;;;;;;4.68;2.67;;;12.40;36.80;;;;;;5092179;28;20064;-71
2024/01/30 10:57:50;;;;;;;4.15;2.67;;;12.00;37.30;;;;;;5093460;28;20032;-73
2024/01/30 11:00:17;;;;;;;2.55;1.40;;;11.70;38.00;;;;;;5092784;28;20082;-73
2024/01/30 11:02:46;;;;;;;3.30;2.22;;;11.60;37.20;;;;;;5092193;28;20115;-72
2024/01/30 11:05:13;;;;;;;6.65;3.50;;;11.50;38.00;;;;;;5092404;28;20066;-72
2024/01/30 11:07:41;;;;;;;6.65;3.17;;;11.30;37.90;;;;;;5092168;28;20032;-72
2024/01/30 11:10:09;;;;;;;6.03;3.55;;;11.00;38.30;;;;;;5091693;28;20400;-72
2024/01/30 11:15:26;;;;;;;2.28;0.98;;;11.60;38.10;;;;;;5086584;28;20500;-72
2024/01/30 11:17:54;;;;;;;3.80;3.30;;;12.20;37.40;;;;;;5072745;28;20463;-73
2024/01/30 11:20:22;;;;;;;3.10;1.75;;;12.40;36.40;;;;;;5078804;28;20031;-72
2024/01/30 11:22:53;;;;;;;3.75;2.58;;;13.20;34.50;;;;;;5074987;28;20028;-72
2024/01/30 11:25:22;;;;;;;3.22;1.75;;;14.10;33.10;;;;;;5091665;28;20224;-72
2024/01/30 11:27:53;;;;;;;4.32;2.10;;;15.40;31.10;;;;;;5092080;28;20115;-72
2024/01/30 11:30:37;;;;;;;3.70;2.90;;;16.10;29.70;;;;;;5074083;28;20507;-72
2024/01/30 11:33:08;;;;;;;3.75;1.67;;;16.70;29.20;;;;;;5074795;28;20032;-72
2024/01/30 11:35:57;;;;;;;3.53;2.20;;;17.00;28.80;;;;;;5056116;28;20048;-72
2024/01/30 11:38:26;;;;;;;2.45;1.27;;;16.90;28.70;;;;;;5073716;28;20545;-73
2024/01/30 11:40:54;;;;;;;4.00;1.65;;;16.40;29.00;;;;;;5070586;28;20045;-73
2024/01/30 11:43:20;;;;;;;5.55;3.13;;;16.00;29.50;;;;;;5054449;28;20489;-72
2024/01/30 11:45:46;;;;;;;2.75;1.50;;;15.90;29.90;;;;;;5070873;28;20036;-73
2024/01/30 11:48:13;;;;;;;4.32;1.20;;;15.90;29.10;;;;;;5071109;28;20233;-72
2024/01/30 11:50:40;;;;;;;2.05;1.58;;;16.40;28.90;;;;;;5070372;28;20417;-72
2024/01/30 11:53:07;;;;;;;2.22;1.83;;;16.70;27.80;;;;;;5071186;28;20041;-72
2024/01/30 11:55:35;;;;;;;2.45;1.27;;;15.80;28.80;;;;;;5088635;28;20038;-73
2024/01/30 11:58:02;;;;;;;3.05;1.65;;;15.20;29.30;;;;;;5091188;28;20032;-72
2024/01/30 12:00:30;;;;;;;3.17;2.65;;;15.70;29.00;;;;;;5090315;28;20081;-73
2024/01/30 12:02:57;;;;;;;1.17;0.88;;;16.20;28.80;;;;;;5092423;28;20036;-73
2024/01/30 12:05:43;;;;;;;;;;;18.00;26.90;;;;;;5091584;28;20078;-73
2024/01/30 12:08:16;;;;;;;2.85;1.52;;;17.40;26.50;;;;;;5091233;28;20119;-72
2024/01/30 12:10:42;;;;;;;1.58;1.02;;;16.70;26.70;;;;;;5089939;28;20048;-72
2024/01/30 12:13:08;;;;;;;4.22;2.25;;;16.70;27.10;;;;;;5091390;28;20024;-73
2024/01/30 12:15:34;;;;;;;6.82;2.03;;;16.30;28.10;;;;;;5091843;28;20094;-73
2024/01/30 12:18:20;;;;;;;3.20;2.35;;;16.90;26.40;;;;;;5090594;28;20493;-72
2024/01/30 12:20:56;;;;;;;4.10;2.42;;;16.80;26.00;;;;;;5091478;28;20119;-72
2024/01/30 12:23:25;;;;;;;3.97;2.45;;;16.00;27.60;;;;;;5090813;28;20059;-73
2024/01/30 12:25:52;;;;;;;2.55;1.33;;;15.10;29.10;;;;;;5092033;28;20040;-72
2024/01/30 12:28:19;;;;;;;2.20;1.23;;;14.40;29.60;;;;;;5072616;28;20400;-72
2024/01/30 12:30:45;;;;;;;3.15;1.63;;;14.00;29.90;;;;;;5072671;28;20032;-72
2024/01/30 12:33:20;;;;;;;3.15;1.50;;;13.90;29.80;;;;;;5090516;28;20042;-72
2024/01/30 12:35:48;;;;;;;6.18;2.17;;;14.20;30.10;;;;;;5087955;28;20071;-73
2024/01/30 12:38:14;;;;;;;8.48;3.45;;;14.50;29.80;;;;;;5071481;28;20079;-72
2024/01/30 12:40:41;;;;;;;6.47;2.00;;;15.50;28.20;;;;;;5052830;28;20037;-72
2024/01/30 12:43:08;;;;;;;4.53;2.97;;;15.80;27.90;;;;;;5070304;28;20025;-72
2024/01/30 12:45:34;;;;;;;3.05;2.10;;;15.50;28.00;;;;;;5079567;28;20046;-72
2024/01/30 12:48:00;;;;;;;5.95;2.28;;;15.20;27.60;;;;;;5091586;28;20033;-71
2024/01/30 12:50:26;;;;;;;3.25;2.22;;;15.00;28.60;;;;;;5072853;28;20035;-72
2024/01/30 12:52:52;;;;;;;3.88;1.20;;;15.60;28.10;;;;;;5073320;28;20036;-72
2024/01/30 12:55:20;;;;;;;3.30;2.80;;;15.70;28.20;;;;;;5091471;28;20043;-72
2024/01/30 12:57:46;;;;;;;1.33;0.90;;;15.50;28.60;;;;;;5091485;28;20031;-72
2024/01/30 13:00:12;;;;;;;;;;;16.60;27.90;;;;;;5091176;28;20082;-73